Time;durP1;ratioP1;P1;durP2;ratioP2;P2;SDS_P1;SDS_P2;PMS_P1;PMS_P2;Temp;Humidity;BMP_temperature;BMP_pressure;BME280_temperature;BME280_humidity;BME280_pressure;Samples;Min_cycle;Max_cycle;Signal;HPM_P1;HPM_P2
2021/11/27 03:18:49;;;;;;;42.17;14.80;;;;;;;0.79;100.00;97894.78;21145498;27;20635;-64
2021/11/27 06:07:26;;;;;;;39.53;15.43;;;;;;;0.96;100.00;98026.69;21045410;27;20567;-65
2021/11/27 06:17:30;;;;;;;57.17;18.87;;;;;;;0.86;100.00;98051.78;20829090;28;20247;-65
2021/11/27 06:27:33;;;;;;;56.30;18.90;;;;;;;0.85;100.00;98065.84;20797914;28;20237;-66
2021/11/27 06:37:36;;;;;;;52.67;18.77;;;;;;;0.80;100.00;98088.09;20777159;28;20487;-62
2021/11/27 06:47:44;;;;;;;81.57;23.67;;;;;;;0.82;100.00;98102.81;20928275;28;20962;-63
2021/11/27 06:57:47;;;;;;;72.20;26.13;;;;;;;0.80;100.00;98123.06;20982540;28;20280;-60
2021/11/27 07:07:52;;;;;;;72.93;25.87;;;;;;;0.79;100.00;98139.72;20939368;28;20345;-60
2021/11/27 07:38:18;;;;;;;96.80;25.57;;;;;;;0.93;100.00;98186.16;20931079;27;20583;-63
2021/11/27 07:48:22;;;;;;;98.53;29.83;;;;;;;1.09;100.00;98210.56;20917199;28;20226;-61
2021/11/27 07:58:44;;;;;;;93.33;32.23;;;;;;;1.13;100.00;98198.09;20904081;28;20230;-62
2021/11/27 08:08:47;;;;;;;113.33;34.20;;;;;;;1.28;100.00;98207.69;20907172;28;20234;-61
2021/11/27 08:18:51;;;;;;;107.23;33.90;;;;;;;1.36;100.00;98208.06;20920484;28;20223;-65
2021/11/27 08:28:55;;;;;;;128.97;34.50;;;;;;;1.39;100.00;98226.28;20850741;28;20235;-61
2021/11/27 08:38:58;;;;;;;135.50;35.90;;;;;;;1.41;100.00;98234.91;20897547;28;20227;-67
2021/11/27 08:49:04;;;;;;;121.33;34.00;;;;;;;1.48;100.00;98243.25;20847239;28;20244;-67
2021/11/27 08:59:09;;;;;;;131.73;42.07;;;;;;;1.56;100.00;98259.44;20848375;28;20292;-66
2021/11/27 09:09:15;;;;;;;113.20;34.10;;;;;;;1.61;100.00;98273.97;20913427;28;20266;-60
2021/11/27 09:19:19;;;;;;;121.77;37.10;;;;;;;1.65;100.00;98280.72;20912766;28;20235;-66
2021/11/27 09:29:23;;;;;;;111.57;32.20;;;;;;;1.79;100.00;98287.78;20921043;28;20232;-67
2021/11/27 09:49:22;;;;;;;129.57;36.13;;;;;;;1.80;100.00;98294.75;20997270;27;20668;-59
2021/11/27 09:59:28;;;;;;;115.73;36.60;;;;;;;1.79;100.00;98309.66;20983445;27;20241;-69
2021/11/27 10:09:32;;;;;;;109.23;36.37;;;;;;;1.65;100.00;98304.38;20983443;27;20238;-71
2021/11/27 10:19:51;;;;;;;105.30;34.87;;;;;;;1.71;100.00;98338.19;21015597;27;20231;-61
2021/11/27 10:30:06;;;;;;;104.50;31.77;;;;;;;1.98;100.00;98351.44;20981798;27;20611;-61
2021/11/27 10:40:17;;;;;;;128.27;35.93;;;;;;;2.07;100.00;98357.94;20960182;28;20251;-62
2021/11/27 11:00:33;;;;;;;110.30;31.93;;;;;;;2.06;100.00;98386.00;20976867;27;21682;-73
2021/11/27 11:10:39;;;;;;;101.23;31.23;;;;;;;2.13;100.00;98375.97;20990692;28;20274;-61
2021/11/27 11:20:52;;;;;;;102.20;29.00;;;;;;;2.32;100.00;98383.56;21008679;28;20746;-60
2021/11/27 11:31:00;;;;;;;143.63;42.23;;;;;;;2.50;100.00;98408.78;21007008;28;20941;-60
2021/11/27 11:41:05;;;;;;;114.67;37.37;;;;;;;2.75;100.00;98408.09;21004191;28;20397;-64
2021/11/27 11:51:18;;;;;;;78.50;28.30;;;;;;;2.82;100.00;98404.09;20986510;28;20300;-67
2021/11/27 12:11:47;;;;;;;67.50;25.40;;;;;;;2.76;100.00;98430.84;20854326;27;20591;-62
2021/11/27 12:22:27;;;;;;;66.43;26.07;;;;;;;2.36;100.00;98430.69;20849032;28;20238;-59
2021/11/27 12:32:42;;;;;;;73.73;25.63;;;;;;;2.14;100.00;98472.38;20855211;28;20702;-59
2021/11/27 12:42:45;;;;;;;73.37;25.83;;;;;;;1.97;100.00;98470.75;20910338;28;20286;-60
2021/11/27 12:52:49;;;;;;;80.63;27.90;;;;;;;1.75;100.00;98484.31;20895094;28;20228;-59
2021/11/27 13:03:00;;;;;;;155.20;37.73;;;;;;;1.68;100.00;98484.75;20912952;28;20244;-59
2021/11/27 13:13:11;;;;;;;92.17;29.33;;;;;;;1.69;100.00;98487.25;20908011;28;20231;-60
2021/11/27 13:23:18;;;;;;;93.63;28.83;;;;;;;1.62;100.00;98485.94;20853812;28;20235;-60
2021/11/27 13:33:23;;;;;;;89.30;25.60;;;;;;;1.74;100.00;98500.16;20852725;28;20235;-62
2021/11/27 13:43:26;;;;;;;85.07;26.20;;;;;;;1.85;100.00;98518.78;20850826;28;20236;-59
2021/11/27 13:53:30;;;;;;;72.33;25.80;;;;;;;1.54;100.00;98524.97;20854982;28;21071;-68
2021/11/27 14:03:35;;;;;;;81.33;25.73;;;;;;;1.46;100.00;98537.66;20856429;28;20242;-61
2021/11/27 14:13:40;;;;;;;89.90;27.77;;;;;;;1.41;100.00;98550.22;20850483;28;20233;-62
2021/11/27 14:23:47;;;;;;;110.37;30.83;;;;;;;1.49;100.00;98563.78;20855095;28;20239;-60
2021/11/27 14:34:02;;;;;;;123.97;34.30;;;;;;;1.57;100.00;98569.44;20846921;28;20825;-64
2021/11/27 14:44:18;;;;;;;111.50;32.73;;;;;;;1.53;100.00;98567.94;20797987;28;20233;-65
2021/11/27 14:54:26;;;;;;;112.20;31.30;;;;;;;1.51;100.00;98574.22;20762615;28;20224;-55
2021/11/27 15:14:28;;;;;;;90.20;29.87;;;;;;;1.41;100.00;98598.38;20841934;27;20587;-64
2021/11/27 15:24:32;;;;;;;97.10;30.00;;;;;;;1.35;100.00;98624.97;20830231;28;20318;-62
2021/11/27 15:44:34;;;;;;;82.37;22.70;;;;;;;1.41;100.00;98634.31;20937119;27;20667;-56
2021/11/27 15:54:38;;;;;;;71.27;23.13;;;;;;;1.50;100.00;98644.31;20857659;28;20225;-57
2021/11/27 16:04:41;;;;;;;60.57;20.53;;;;;;;1.38;100.00;98645.84;20879935;28;20699;-59
2021/11/27 16:14:45;;;;;;;58.10;21.27;;;;;;;1.36;100.00;98647.69;20917689;28;20628;-59
2021/11/27 16:24:49;;;;;;;82.37;25.00;;;;;;;1.32;100.00;98666.34;20945164;28;20249;-60
2021/11/27 16:34:52;;;;;;;82.63;24.57;;;;;;;1.24;100.00;98668.53;20982598;28;20247;-63
2021/11/27 16:54:53;;;;;;;83.37;24.03;;;;;;;1.29;100.00;98684.91;20915105;27;20593;-58
2021/11/27 17:14:56;;;;;;;71.90;20.73;;;;;;;1.30;100.00;98694.47;20973868;27;20642;-57
2021/11/27 17:25:01;;;;;;;93.20;25.03;;;;;;;1.32;100.00;98682.13;20973269;28;20631;-58
2021/11/27 17:45:06;;;;;;;82.10;23.83;;;;;;;1.39;100.00;98678.22;21155338;27;20679;-58
2021/11/27 17:55:12;;;;;;;87.13;28.40;;;;;;;1.44;100.00;98703.34;21159081;27;20630;-61
2021/11/27 18:05:17;;;;;;;74.93;24.90;;;;;;;1.17;100.00;98727.56;21104414;27;20309;-59
2021/11/27 18:15:22;;;;;;;81.27;26.20;;;;;;;1.23;100.00;98745.63;21077720;27;20234;-55
2021/11/27 18:25:35;;;;;;;95.77;26.47;;;;;;;1.43;100.00;98750.72;21121620;27;20397;-59
2021/11/27 18:35:38;;;;;;;92.80;26.20;;;;;;;1.59;100.00;98759.47;21086628;27;20321;-57
2021/11/27 18:45:42;;;;;;;88.70;25.47;;;;;;;1.65;100.00;98753.91;21132557;27;20226;-57
2021/11/27 18:55:45;;;;;;;89.43;24.20;;;;;;;1.68;100.00;98761.66;21104232;27;20356;-61
2021/11/27 19:05:50;;;;;;;99.20;27.10;;;;;;;1.54;100.00;98761.53;21077729;27;20225;-58
2021/11/27 19:25:51;;;;;;;93.53;24.03;;;;;;;1.40;100.00;98738.59;20915535;27;21214;-59
2021/11/27 19:35:58;;;;;;;116.80;26.30;;;;;;;1.44;100.00;98749.78;20907991;28;20347;-56
2021/11/27 19:46:07;;;;;;;105.43;25.67;;;;;;;1.41;100.00;98760.47;20901794;28;20240;-56
2021/11/27 19:56:11;;;;;;;113.10;26.77;;;;;;;1.27;100.00;98774.31;20908690;28;20238;-58
2021/11/27 20:06:15;;;;;;;114.17;27.10;;;;;;;1.31;100.00;98809.16;20906534;28;20235;-62
2021/11/27 20:16:19;;;;;;;134.03;28.83;;;;;;;1.40;100.00;98812.16;20909406;28;20239;-61
2021/11/27 20:26:24;;;;;;;127.20;28.53;;;;;;;1.40;100.00;98806.91;20907979;28;20305;-56
2021/11/27 20:46:28;;;;;;;125.43;27.23;;;;;;;1.44;100.00;98802.34;21118072;27;20573;-62
2021/11/27 21:06:30;;;;;;;119.10;30.27;;;;;;;1.29;100.00;98797.88;20880328;27;20314;-56
2021/11/27 21:16:35;;;;;;;131.43;31.77;;;;;;;1.36;100.00;98810.63;20840768;28;20899;-56
2021/11/27 21:26:40;;;;;;;126.57;31.27;;;;;;;1.40;100.00;98800.81;20857857;28;20224;-57
2021/11/27 21:46:40;;;;;;;136.63;30.43;;;;;;;1.29;100.00;98792.63;20982935;27;20660;-59
2021/11/27 21:56:45;;;;;;;135.67;35.53;;;;;;;1.22;100.00;98783.34;20978954;28;20231;-60
2021/11/27 22:06:54;;;;;;;177.50;51.60;;;;;;;0.98;100.00;98793.31;20973046;28;20528;-56
2021/11/27 22:16:57;;;;;;;138.97;37.37;;;;;;;0.75;100.00;98776.06;20979536;28;20272;-56
2021/11/27 22:27:04;;;;;;;140.53;37.87;;;;;;;0.27;100.00;98769.63;20981952;28;20771;-57
2021/11/27 22:37:09;;;;;;;158.17;38.43;;;;;;;-0.11;100.00;98753.06;20974234;28;20456;-57
2021/11/27 22:47:13;;;;;;;140.27;36.60;;;;;;;-0.29;100.00;98747.81;20978250;28;20977;-62
2021/11/27 23:17:08;;;;;;;152.10;38.23;;;;;;;-0.26;100.00;98742.47;21034810;27;20634;-56
2021/11/27 23:27:11;;;;;;;150.90;39.13;;;;;;;-0.37;100.00;98714.13;20954589;28;20622;-58
2021/11/27 23:37:17;;;;;;;144.00;37.40;;;;;;;-0.50;100.00;98713.84;21024016;27;20229;-62
2021/11/27 23:57:24;;;;;;;139.13;35.77;;;;;;;-0.75;100.00;98757.75;21004418;27;20573;-54
